BAW24T EGLL-EGGP
Flight info
| Callsign | BAW24T |
|---|---|
| Flight time | 0h 36m |
| Altitude | 18000 |
| Route | ULTIB T420 ELVOS |
| Aircraft | A320/M-SDE3FGHIRWY/LB1 |
Departure
| Time | 2026-05-06 18:54 |
|---|---|
| Airport | London Heathrow Airport (EGLL) |
Arrival
| Time | 2026-05-06 19:30 |
|---|---|
| Airport | Liverpool John Lennon Airport (EGGP) |
| Time | Latitude | Longitude | Altitude | Speed | Heading |
|---|---|---|---|---|---|
| 2026-05-06 18:24 | 51.46820 | -0.44680 | 86 ft | 0 kts | 267° |
| 2026-05-06 18:43 | 51.46820 | -0.44651 | 91 ft | 4 kts | 267° |
| 2026-05-06 18:44 | 51.46822 | -0.44610 | 88 ft | 2 kts | 267° |
| 2026-05-06 18:44 | 51.46825 | -0.44576 | 87 ft | 4 kts | 238° |
| 2026-05-06 18:44 | 51.46842 | -0.44554 | 90 ft | 3 kts | 180° |
| 2026-05-06 18:44 | 51.46862 | -0.44555 | 88 ft | 0 kts | 179° |
| 2026-05-06 18:47 | 51.46848 | -0.44554 | 89 ft | 3 kts | 179° |
| 2026-05-06 18:47 | 51.46818 | -0.44554 | 90 ft | 5 kts | 179° |
| 2026-05-06 18:47 | 51.46775 | -0.44553 | 88 ft | 7 kts | 179° |
| 2026-05-06 18:48 | 51.46718 | -0.44553 | 86 ft | 9 kts | 179° |
| 2026-05-06 18:48 | 51.46666 | -0.44604 | 87 ft | 10 kts | 255° |
| 2026-05-06 18:48 | 51.46664 | -0.44729 | 86 ft | 12 kts | 269° |
| 2026-05-06 18:48 | 51.46664 | -0.44877 | 86 ft | 14 kts | 270° |
| 2026-05-06 18:49 | 51.46663 | -0.45048 | 86 ft | 16 kts | 269° |
| 2026-05-06 18:49 | 51.46663 | -0.45245 | 86 ft | 19 kts | 270° |
| 2026-05-06 18:49 | 51.46662 | -0.45469 | 86 ft | 21 kts | 270° |
| 2026-05-06 18:49 | 51.46661 | -0.45718 | 86 ft | 23 kts | 270° |
| 2026-05-06 18:50 | 51.46660 | -0.45960 | 86 ft | 22 kts | 269° |
| 2026-05-06 18:50 | 51.46660 | -0.46214 | 90 ft | 24 kts | 269° |
| 2026-05-06 18:50 | 51.46659 | -0.46464 | 88 ft | 22 kts | 269° |
| 2026-05-06 18:50 | 51.46658 | -0.46712 | 89 ft | 21 kts | 269° |
| 2026-05-06 18:51 | 51.46657 | -0.46958 | 88 ft | 23 kts | 270° |
| 2026-05-06 18:51 | 51.46656 | -0.47230 | 86 ft | 25 kts | 269° |
| 2026-05-06 18:51 | 51.46655 | -0.47525 | 86 ft | 27 kts | 270° |
| 2026-05-06 18:51 | 51.46654 | -0.47806 | 86 ft | 25 kts | 270° |
| 2026-05-06 18:52 | 51.46653 | -0.48052 | 86 ft | 15 kts | 270° |
| 2026-05-06 18:52 | 51.46653 | -0.48102 | 86 ft | 1 kts | 270° |
| 2026-05-06 18:52 | 51.46647 | -0.48169 | 88 ft | 12 kts | 250° |
| 2026-05-06 18:52 | 51.46572 | -0.48211 | 87 ft | 13 kts | 179° |
| 2026-05-06 18:53 | 51.46488 | -0.48186 | 89 ft | 13 kts | 127° |
| 2026-05-06 18:53 | 51.46480 | -0.48105 | 87 ft | 0 kts | 88° |
| 2026-05-06 18:53 | 51.46481 | -0.47891 | 87 ft | 53 kts | 89° |
| 2026-05-06 18:53 | 51.46483 | -0.46935 | 88 ft | 114 kts | 90° |
| 2026-05-06 18:54 | 51.46490 | -0.45395 | 91 ft | 161 kts | 89° |
| 2026-05-06 18:54 | 51.46498 | -0.43552 | 602 ft | 166 kts | 86° |
| 2026-05-06 18:54 | 51.46576 | -0.41710 | 1337 ft | 166 kts | 72° |
| 2026-05-06 18:54 | 51.47119 | -0.40013 | 1738 ft | 181 kts | 48° |
| 2026-05-06 18:55 | 51.47971 | -0.38362 | 1960 ft | 203 kts | 49° |
| 2026-05-06 18:55 | 51.48919 | -0.36503 | 2230 ft | 228 kts | 49° |
| 2026-05-06 18:55 | 51.49965 | -0.34436 | 2748 ft | 246 kts | 49° |
| 2026-05-06 18:55 | 51.51099 | -0.32339 | 3576 ft | 251 kts | 39° |
| 2026-05-06 18:56 | 51.52654 | -0.31097 | 4399 ft | 254 kts | 10° |
| 2026-05-06 18:56 | 51.54411 | -0.31249 | 5253 ft | 257 kts | 341° |
| 2026-05-06 18:56 | 51.56054 | -0.32453 | 5825 ft | 263 kts | 332° |
| 2026-05-06 18:56 | 51.57659 | -0.33846 | 5977 ft | 262 kts | 331° |
| 2026-05-06 18:57 | 51.59263 | -0.35270 | 6007 ft | 265 kts | 331° |
| 2026-05-06 18:57 | 51.60870 | -0.36709 | 6007 ft | 264 kts | 331° |
| 2026-05-06 18:57 | 51.62470 | -0.38152 | 6016 ft | 264 kts | 331° |
| 2026-05-06 18:57 | 51.64064 | -0.39593 | 6014 ft | 262 kts | 331° |
| 2026-05-06 18:58 | 51.65665 | -0.41046 | 6318 ft | 266 kts | 331° |
| 2026-05-06 18:58 | 51.67281 | -0.42506 | 7215 ft | 266 kts | 331° |
| 2026-05-06 18:58 | 51.68912 | -0.43966 | 8033 ft | 270 kts | 331° |
| 2026-05-06 18:58 | 51.70569 | -0.45438 | 8845 ft | 274 kts | 331° |
| 2026-05-06 18:59 | 51.72246 | -0.46921 | 9707 ft | 276 kts | 331° |
| 2026-05-06 18:59 | 51.73955 | -0.48423 | 10297 ft | 288 kts | 331° |
| 2026-05-06 18:59 | 51.75785 | -0.50023 | 10479 ft | 311 kts | 331° |
| 2026-05-06 18:59 | 51.77752 | -0.51745 | 10688 ft | 331 kts | 331° |
| 2026-05-06 19:00 | 51.79800 | -0.53539 | 11229 ft | 338 kts | 331° |
| 2026-05-06 19:00 | 51.81882 | -0.55361 | 11904 ft | 342 kts | 331° |
| 2026-05-06 19:00 | 51.83977 | -0.57097 | 12585 ft | 345 kts | 334° |
| 2026-05-06 19:00 | 51.85454 | -0.58181 | 13060 ft | 346 kts | 335° |
| 2026-05-06 19:01 | 51.88404 | -0.60231 | 13956 ft | 351 kts | 336° |
| 2026-05-06 19:01 | 51.90669 | -0.61756 | 14537 ft | 355 kts | 336° |
| 2026-05-06 19:01 | 51.92962 | -0.63297 | 15118 ft | 358 kts | 336° |
| 2026-05-06 19:01 | 51.95270 | -0.64857 | 15701 ft | 361 kts | 336° |
| 2026-05-06 19:02 | 51.97595 | -0.66437 | 16288 ft | 364 kts | 336° |
| 2026-05-06 19:02 | 51.99940 | -0.68040 | 16861 ft | 367 kts | 336° |
| 2026-05-06 19:02 | 52.02307 | -0.69667 | 17423 ft | 371 kts | 335° |
| 2026-05-06 19:02 | 52.04694 | -0.71319 | 17891 ft | 375 kts | 335° |
| 2026-05-06 19:03 | 52.07104 | -0.72991 | 17990 ft | 382 kts | 335° |
| 2026-05-06 19:03 | 52.09607 | -0.74729 | 18008 ft | 399 kts | 335° |
| 2026-05-06 19:03 | 52.12185 | -0.76518 | 18001 ft | 406 kts | 336° |
| 2026-05-06 19:03 | 52.14790 | -0.78324 | 18003 ft | 407 kts | 336° |
| 2026-05-06 19:04 | 52.17400 | -0.80135 | 18010 ft | 407 kts | 335° |
| 2026-05-06 19:04 | 52.20006 | -0.81943 | 18014 ft | 407 kts | 336° |
| 2026-05-06 19:04 | 52.22616 | -0.83758 | 18016 ft | 408 kts | 336° |
| 2026-05-06 19:04 | 52.25187 | -0.85705 | 18019 ft | 407 kts | 330° |
| 2026-05-06 19:05 | 52.27615 | -0.88087 | 18027 ft | 407 kts | 327° |
| 2026-05-06 19:05 | 52.30032 | -0.90492 | 18029 ft | 406 kts | 327° |
| 2026-05-06 19:05 | 52.32444 | -0.92893 | 18026 ft | 406 kts | 328° |
| 2026-05-06 19:05 | 52.34855 | -0.95293 | 18030 ft | 406 kts | 328° |
| 2026-05-06 19:06 | 52.37267 | -0.97699 | 18029 ft | 406 kts | 328° |
| 2026-05-06 19:06 | 52.39678 | -1.00107 | 18030 ft | 406 kts | 328° |
| 2026-05-06 19:06 | 52.42091 | -1.02515 | 18030 ft | 406 kts | 328° |
| 2026-05-06 19:06 | 52.44504 | -1.04930 | 18017 ft | 407 kts | 328° |
| 2026-05-06 19:07 | 52.46919 | -1.07353 | 18009 ft | 407 kts | 328° |
| 2026-05-06 19:07 | 52.48516 | -1.08957 | 18011 ft | 407 kts | 328° |
| 2026-05-06 19:07 | 52.51744 | -1.12204 | 18007 ft | 407 kts | 327° |
| 2026-05-06 19:07 | 52.54127 | -1.14605 | 18015 ft | 407 kts | 327° |
| 2026-05-06 19:08 | 52.56542 | -1.17039 | 18015 ft | 407 kts | 327° |
| 2026-05-06 19:08 | 52.58955 | -1.19473 | 18012 ft | 407 kts | 327° |
| 2026-05-06 19:08 | 52.61368 | -1.21909 | 18006 ft | 407 kts | 327° |
| 2026-05-06 19:08 | 52.63784 | -1.24352 | 18002 ft | 407 kts | 327° |
| 2026-05-06 19:09 | 52.66197 | -1.26797 | 18001 ft | 407 kts | 327° |
| 2026-05-06 19:09 | 52.68607 | -1.29243 | 18001 ft | 407 kts | 327° |
| 2026-05-06 19:09 | 52.71018 | -1.31696 | 18004 ft | 407 kts | 327° |
| 2026-05-06 19:09 | 52.73427 | -1.34149 | 18006 ft | 407 kts | 327° |
| 2026-05-06 19:10 | 52.75838 | -1.36602 | 18070 ft | 407 kts | 327° |
| 2026-05-06 19:10 | 52.78251 | -1.39057 | 18066 ft | 407 kts | 327° |
| 2026-05-06 19:10 | 52.80660 | -1.41515 | 18063 ft | 407 kts | 327° |
| 2026-05-06 19:10 | 52.83066 | -1.43976 | 18061 ft | 407 kts | 327° |
| 2026-05-06 19:11 | 52.85475 | -1.46444 | 18060 ft | 407 kts | 327° |
| 2026-05-06 19:11 | 52.87879 | -1.48910 | 18059 ft | 407 kts | 327° |
| 2026-05-06 19:11 | 52.90288 | -1.51383 | 18057 ft | 407 kts | 327° |
| 2026-05-06 19:11 | 52.92697 | -1.53860 | 18051 ft | 408 kts | 327° |
| 2026-05-06 19:12 | 52.95105 | -1.56346 | 18048 ft | 408 kts | 327° |
| 2026-05-06 19:12 | 52.97514 | -1.58837 | 18048 ft | 408 kts | 327° |
| 2026-05-06 19:12 | 52.99926 | -1.61334 | 18059 ft | 408 kts | 326° |
| 2026-05-06 19:12 | 53.02153 | -1.64234 | 18051 ft | 407 kts | 315° |
| 2026-05-06 19:13 | 53.03988 | -1.67792 | 18050 ft | 406 kts | 304° |
| 2026-05-06 19:13 | 53.05375 | -1.71863 | 18051 ft | 405 kts | 293° |
| 2026-05-06 19:13 | 53.06265 | -1.76245 | 17863 ft | 395 kts | 283° |
| 2026-05-06 19:13 | 53.06722 | -1.80673 | 17591 ft | 383 kts | 279° |
| 2026-05-06 19:14 | 53.07130 | -1.84987 | 17314 ft | 373 kts | 279° |
| 2026-05-06 19:14 | 53.07529 | -1.89197 | 16892 ft | 366 kts | 279° |
| 2026-05-06 19:14 | 53.07923 | -1.93352 | 16368 ft | 362 kts | 279° |
| 2026-05-06 19:14 | 53.08313 | -1.97466 | 15849 ft | 359 kts | 279° |
| 2026-05-06 19:15 | 53.08698 | -2.01548 | 15317 ft | 356 kts | 279° |
| 2026-05-06 19:15 | 53.09077 | -2.05594 | 14786 ft | 353 kts | 279° |
| 2026-05-06 19:15 | 53.09446 | -2.09556 | 14263 ft | 350 kts | 279° |
| 2026-05-06 19:15 | 53.09817 | -2.13545 | 13732 ft | 348 kts | 279° |
| 2026-05-06 19:16 | 53.10185 | -2.17507 | 13171 ft | 345 kts | 279° |
| 2026-05-06 19:16 | 53.10547 | -2.21428 | 12653 ft | 341 kts | 279° |
| 2026-05-06 19:16 | 53.10903 | -2.25314 | 12124 ft | 338 kts | 279° |
| 2026-05-06 19:16 | 53.11254 | -2.29170 | 11602 ft | 336 kts | 279° |
| 2026-05-06 19:17 | 53.11602 | -2.32998 | 11085 ft | 334 kts | 279° |
| 2026-05-06 19:17 | 53.11949 | -2.36803 | 10690 ft | 328 kts | 279° |
| 2026-05-06 19:17 | 53.12177 | -2.39306 | 10607 ft | 319 kts | 279° |
| 2026-05-06 19:17 | 53.12502 | -2.42888 | 10483 ft | 307 kts | 279° |
| 2026-05-06 19:18 | 53.12811 | -2.46337 | 10358 ft | 296 kts | 279° |
| 2026-05-06 19:18 | 53.13109 | -2.49671 | 10215 ft | 287 kts | 279° |
| 2026-05-06 19:18 | 53.13399 | -2.52916 | 10051 ft | 279 kts | 279° |
| 2026-05-06 19:18 | 53.13681 | -2.56077 | 9993 ft | 280 kts | 279° |
| 2026-05-06 19:19 | 53.13977 | -2.59313 | 9862 ft | 278 kts | 279° |
| 2026-05-06 19:19 | 53.14279 | -2.62439 | 9688 ft | 277 kts | 280° |
| 2026-05-06 19:19 | 53.14588 | -2.65596 | 9510 ft | 276 kts | 280° |
| 2026-05-06 19:19 | 53.14894 | -2.68742 | 9333 ft | 275 kts | 279° |
| 2026-05-06 19:20 | 53.15198 | -2.71880 | 9160 ft | 274 kts | 279° |
| 2026-05-06 19:20 | 53.15506 | -2.75050 | 8983 ft | 273 kts | 279° |
| 2026-05-06 19:20 | 53.15802 | -2.78124 | 8738 ft | 272 kts | 279° |
| 2026-05-06 19:20 | 53.16098 | -2.81227 | 8399 ft | 270 kts | 279° |
| 2026-05-06 19:21 | 53.16389 | -2.84308 | 8073 ft | 269 kts | 279° |
| 2026-05-06 19:21 | 53.16679 | -2.87392 | 7618 ft | 272 kts | 279° |
| 2026-05-06 19:21 | 53.16976 | -2.90539 | 7107 ft | 277 kts | 279° |
| 2026-05-06 19:21 | 53.17274 | -2.93715 | 6596 ft | 275 kts | 279° |
| 2026-05-06 19:22 | 53.17565 | -2.96821 | 6084 ft | 268 kts | 279° |
| 2026-05-06 19:22 | 53.17845 | -2.99857 | 5557 ft | 262 kts | 278° |
| 2026-05-06 19:22 | 53.18120 | -3.02843 | 5039 ft | 259 kts | 278° |
| 2026-05-06 19:22 | 53.18392 | -3.05793 | 4514 ft | 256 kts | 278° |
| 2026-05-06 19:23 | 53.18663 | -3.08708 | 3981 ft | 253 kts | 277° |
| 2026-05-06 19:23 | 53.18999 | -3.11565 | 3470 ft | 250 kts | 291° |
| 2026-05-06 19:23 | 53.20039 | -3.13798 | 3036 ft | 243 kts | 328° |
| 2026-05-06 19:23 | 53.21550 | -3.14591 | 2982 ft | 218 kts | 1° |
| 2026-05-06 19:24 | 53.23000 | -3.14422 | 2862 ft | 199 kts | 7° |
| 2026-05-06 19:24 | 53.24317 | -3.14209 | 2745 ft | 182 kts | 7° |
| 2026-05-06 19:24 | 53.25522 | -3.14007 | 2625 ft | 164 kts | 7° |
| 2026-05-06 19:24 | 53.26603 | -3.13827 | 2441 ft | 150 kts | 7° |
| 2026-05-06 19:25 | 53.27630 | -3.13655 | 2134 ft | 147 kts | 8° |
| 2026-05-06 19:25 | 53.28643 | -3.13484 | 2014 ft | 147 kts | 8° |
| 2026-05-06 19:25 | 53.29665 | -3.13309 | 2012 ft | 148 kts | 10° |
| 2026-05-06 19:25 | 53.30633 | -3.12782 | 2008 ft | 146 kts | 31° |
| 2026-05-06 19:26 | 53.31434 | -3.11763 | 2011 ft | 144 kts | 50° |
| 2026-05-06 19:26 | 53.31988 | -3.10386 | 2008 ft | 142 kts | 69° |
| 2026-05-06 19:26 | 53.32247 | -3.08807 | 2008 ft | 140 kts | 86° |
| 2026-05-06 19:26 | 53.32321 | -3.07181 | 2006 ft | 140 kts | 88° |
| 2026-05-06 19:27 | 53.32397 | -3.05581 | 2005 ft | 140 kts | 88° |
| 2026-05-06 19:27 | 53.32475 | -3.03939 | 2004 ft | 140 kts | 88° |
| 2026-05-06 19:27 | 53.32551 | -3.02314 | 1916 ft | 140 kts | 87° |
| 2026-05-06 19:27 | 53.32627 | -3.00695 | 1768 ft | 139 kts | 88° |
| 2026-05-06 19:28 | 53.32702 | -2.99104 | 1596 ft | 138 kts | 87° |
| 2026-05-06 19:28 | 53.32777 | -2.97507 | 1413 ft | 138 kts | 87° |
| 2026-05-06 19:28 | 53.32853 | -2.95911 | 1227 ft | 137 kts | 87° |
| 2026-05-06 19:28 | 53.32928 | -2.94319 | 1037 ft | 137 kts | 87° |
| 2026-05-06 19:29 | 53.33002 | -2.92733 | 843 ft | 137 kts | 87° |
| 2026-05-06 19:29 | 53.33076 | -2.91151 | 652 ft | 136 kts | 86° |
| 2026-05-06 19:29 | 53.33150 | -2.89573 | 468 ft | 136 kts | 87° |
| 2026-05-06 19:29 | 53.33223 | -2.87999 | 289 ft | 136 kts | 87° |
| 2026-05-06 19:30 | 53.33297 | -2.86427 | 110 ft | 135 kts | 87° |
| 2026-05-06 19:30 | 53.33353 | -2.85159 | 97 ft | 69 kts | 85° |
| 2026-05-06 19:30 | 53.33371 | -2.84800 | 94 ft | 14 kts | 84° |
| 2026-05-06 19:30 | 53.33423 | -2.84512 | 94 ft | 31 kts | 62° |
| 2026-05-06 19:31 | 53.33519 | -2.84270 | 96 ft | 14 kts | 31° |
| 2026-05-06 19:31 | 53.33548 | -2.84366 | 94 ft | 12 kts | 265° |
| 2026-05-06 19:31 | 53.33540 | -2.84728 | 94 ft | 18 kts | 266° |
| 2026-05-06 19:32 | 53.33530 | -2.84956 | 94 ft | 21 kts | 266° |
| 2026-05-06 19:32 | 53.33518 | -2.85214 | 94 ft | 23 kts | 265° |
| 2026-05-06 19:32 | 53.33509 | -2.85456 | 94 ft | 14 kts | 282° |
| 2026-05-06 19:32 | 53.33590 | -2.85522 | 96 ft | 14 kts | 328° |
| 2026-05-06 19:33 | 53.33620 | -2.85644 | 95 ft | 11 kts | 328° |
| 2026-05-06 19:33 | 53.33652 | -2.85653 | 94 ft | 1 kts | 354° |
| 2026-05-06 19:33 | 53.33654 | -2.85653 | 94 ft | 0 kts | 356° |